Staples, Texas
Current Conditions -  °F | °C
As of 8:15 PM on Saturday 25 Oct 2014 (Local Time) from KHYI Reporting Station
Clear Clear  
Wind Chill: 73°   Ceiling: Unl
Heat Index: 73°   Visibility: 10mi
Dew Point: 54°   Wind: 5mph
Humidity: 50%   Direction: 140°SE
Pressure: 30.1"   Gusts: NA
Location:  29.78°N, 97.84°W
Report Text: KHYI 260115Z 14004KT 10SM CLR 23/12 A3010 RMK AO1
Loading
Personal Weather Stations






























Interactive Weather Map
Tropical Storm Tracking
New forecast layout! Learn more

10-Day Weather Forecast

Advertisements
Track Severe Weather on mobile